M/V Oriole — WDE6982 — position and weather

sailwx.info

Track history (hours):
 
Tides and Currents Weather Stations Pressure Air Temp Water Temp Dewpoint Dewpoint Depression Visibility Wind Speed Wind Dir Waves Ship Positions

M/V Oriole

Owner: NATIVE SON INC., ST. THOMAS, VI. More information available from US FCC via Universal Licensing System and Coast Guard Vessel Documentation Center.

Last reported at 2015-Jul-01 16:30 UTC. Time now 2015-Jul-05 12:49 UTC.
Position N 18°23' W 064°40'.

Length 25 m.

Type: Passenger vessel. MMSI: 366755670.

Date/timePositionNaut miles runAvg speedWind from/ knotsBaromVisibWave heightAir tempDewpointWater temp
2015-Jul-01 16:30N 18°23' W 064°40'10 7.0
2015-Jul-01 15:06N 18°20' W 064°51'1 0.4
2015-Jul-01 13:29N 18°20' W 064°50'8 8.6
2015-Jul-01 12:32N 18°23' W 064°42'8 7.2
2015-Jul-01 11:27N 18°20' W 064°49'8 7.9
2015-Jul-01 10:29N 18°23' W 064°42'3 0.2
2015-Jun-30 22:20N 18°23' W 064°39'11 9.4
2015-Jun-30 21:07N 18°20' W 064°51'3 5.2
2015-Jun-30 20:33N 18°20' W 064°48'1 1.4
2015-Jun-30 19:33N 18°20' W 064°49'1 0.4
2015-Jun-30 17:29N 18°20' W 064°50'8 7.7
2015-Jun-30 16:27N 18°23' W 064°42'8 2.7
2015-Jun-30 13:33N 18°20' W 064°50'5 4.9
2015-Jun-30 12:33N 18°22' W 064°45'4 3.1
2015-Jun-30 11:24N 18°20' W 064°48'7 8.7
2015-Jun-30 10:33N 18°23' W 064°40'0 0.0
2015-Jun-29 22:31N 18°23' W 064°40'10 7.4
2015-Jun-29 21:12N 18°20' W 064°50'2 2.6
2015-Jun-29 20:31N 18°20' W 064°48'3 1.2
2015-Jun-29 18:17N 18°20' W 064°51'911.6
2015-Jun-29 17:31N 18°23' W 064°42'0 0.0
2015-Jun-29 16:33N 18°23' W 064°42'6 2.1
2015-Jun-29 13:33N 18°20' W 064°48'4 4.0
2015-Jun-29 12:33N 18°23' W 064°45'4 3.8
2015-Jun-29 11:31N 18°20' W 064°48'8 7.9
2015-Jun-29 10:31N 18°23' W 064°40'2 0.2
2015-Jun-28 22:34N 18°23' W 064°42'1 0.3
2015-Jun-28 19:30N 18°23' W 064°41'3 2.6
2015-Jun-28 18:33N 18°23' W 064°43'2 0.5
2015-Jun-28 14:32N 18°22' W 064°46'7 6.6
2015-Jun-28 13:33N 18°23' W 064°39'11 0.7
2015-Jun-27 21:29N 18°19' W 064°50'11 3.7
2015-Jun-27 18:32N 18°23' W 064°39'9 2.3
2015-Jun-27 14:33N 18°21' W 064°48'10 0.2
2015-Jun-25 22:08N 18°24' W 064°38'915.4
2015-Jun-25 21:33N 18°22' W 064°47'2 1.5
2015-Jun-25 20:29N 18°20' W 064°48'3 3.2
2015-Jun-25 19:34N 18°22' W 064°46'3 1.6
2015-Jun-25 17:30N 18°20' W 064°48'7 6.3
2015-Jun-25 16:27N 18°23' W 064°42'8 3.4
2015-Jun-25 14:08N 18°20' W 064°50'2 3.2
2015-Jun-25 13:33N 18°20' W 064°48'0 0.0
2015-Jun-25 11:29N 18°20' W 064°48'6 6.5
2015-Jun-25 10:33N 18°23' W 064°42'3 0.3
2015-Jun-24 22:18N 18°23' W 064°39'9 5.2
2015-Jun-24 20:33N 18°20' W 064°48'2 2.4
2015-Jun-24 19:33N 18°22' W 064°47'3 1.1
2015-Jun-24 17:20N 18°20' W 064°48'1 0.1
2015-Jun-24 13:33N 18°20' W 064°49'7 6.8
2015-Jun-24 12:31N 18°23' W 064°42'6 6.0
2015-Jun-24 11:30N 18°20' W 064°48'6 6.5
2015-Jun-24 10:33N 18°23' W 064°42'  
2015-Jun-21 23:18N 18°24' W 064°38'1213.7
2015-Jun-21 22:26N 18°20' W 064°50'2 1.1
2015-Jun-21 20:25N 18°20' W 064°48'4 3.9
2015-Jun-21 19:32N 18°23' W 064°45'6 2.6
2015-Jun-21 17:26N 18°20' W 064°50'  
Track history (hours):
 
Tides and Currents Weather Stations Pressure Air Temp Water Temp Dewpoint Dewpoint Depression Visibility Wind Speed Wind Dir Waves Ship Positions

M/V Oriole

Owner: NATIVE SON INC., ST. THOMAS, VI. More information available from US FCC via Universal Licensing System and Coast Guard Vessel Documentation Center.

Last reported at 2015-Jul-01 16:30 UTC. Time now 2015-Jul-05 12:50 UTC.
Position N 18°23' W 064°40'.

Length 25 m.

Type: Passenger vessel. MMSI: 366755670.

Date/timePositionNaut miles runAvg speedWind from/ knotsBaromVisibWave heightAir tempDewpointWater temp
2015-Jul-01 16:30N 18°23' W 064°40'10 7.0
2015-Jul-01 15:06N 18°20' W 064°51'1 0.4
2015-Jul-01 13:29N 18°20' W 064°50'8 8.6
2015-Jul-01 12:32N 18°23' W 064°42'8 7.2
2015-Jul-01 11:27N 18°20' W 064°49'8 7.9
2015-Jul-01 10:29N 18°23' W 064°42'3 0.2
2015-Jun-30 22:20N 18°23' W 064°39'11 9.4
2015-Jun-30 21:07N 18°20' W 064°51'3 5.2
2015-Jun-30 20:33N 18°20' W 064°48'1 1.4
2015-Jun-30 19:33N 18°20' W 064°49'1 0.4
2015-Jun-30 17:29N 18°20' W 064°50'8 7.7
2015-Jun-30 16:27N 18°23' W 064°42'8 2.7
2015-Jun-30 13:33N 18°20' W 064°50'5 4.9
2015-Jun-30 12:33N 18°22' W 064°45'4 3.1
2015-Jun-30 11:24N 18°20' W 064°48'7 8.7
2015-Jun-30 10:33N 18°23' W 064°40'0 0.0
2015-Jun-29 22:31N 18°23' W 064°40'10 7.4
2015-Jun-29 21:12N 18°20' W 064°50'2 2.6
2015-Jun-29 20:31N 18°20' W 064°48'3 1.2
2015-Jun-29 18:17N 18°20' W 064°51'911.6
2015-Jun-29 17:31N 18°23' W 064°42'0 0.0
2015-Jun-29 16:33N 18°23' W 064°42'6 2.1
2015-Jun-29 13:33N 18°20' W 064°48'4 4.0
2015-Jun-29 12:33N 18°23' W 064°45'4 3.8
2015-Jun-29 11:31N 18°20' W 064°48'8 7.9
2015-Jun-29 10:31N 18°23' W 064°40'2 0.2
2015-Jun-28 22:34N 18°23' W 064°42'1 0.3
2015-Jun-28 19:30N 18°23' W 064°41'3 2.6
2015-Jun-28 18:33N 18°23' W 064°43'2 0.5
2015-Jun-28 14:32N 18°22' W 064°46'7 6.6
2015-Jun-28 13:33N 18°23' W 064°39'11 0.7
2015-Jun-27 21:29N 18°19' W 064°50'11 3.7
2015-Jun-27 18:32N 18°23' W 064°39'9 2.3
2015-Jun-27 14:33N 18°21' W 064°48'10 0.2
2015-Jun-25 22:08N 18°24' W 064°38'915.4
2015-Jun-25 21:33N 18°22' W 064°47'2 1.5
2015-Jun-25 20:29N 18°20' W 064°48'3 3.2
2015-Jun-25 19:34N 18°22' W 064°46'3 1.6
2015-Jun-25 17:30N 18°20' W 064°48'7 6.3
2015-Jun-25 16:27N 18°23' W 064°42'8 3.4
2015-Jun-25 14:08N 18°20' W 064°50'2 3.2
2015-Jun-25 13:33N 18°20' W 064°48'0 0.0
2015-Jun-25 11:29N 18°20' W 064°48'6 6.5
2015-Jun-25 10:33N 18°23' W 064°42'3 0.3
2015-Jun-24 22:18N 18°23' W 064°39'9 5.2
2015-Jun-24 20:33N 18°20' W 064°48'2 2.4
2015-Jun-24 19:33N 18°22' W 064°47'3 1.1
2015-Jun-24 17:20N 18°20' W 064°48'1 0.1
2015-Jun-24 13:33N 18°20' W 064°49'7 6.8
2015-Jun-24 12:31N 18°23' W 064°42'6 6.0
2015-Jun-24 11:30N 18°20' W 064°48'6 6.5
2015-Jun-24 10:33N 18°23' W 064°42'  
2015-Jun-21 23:18N 18°24' W 064°38'1213.7
2015-Jun-21 22:26N 18°20' W 064°50'2 1.1
2015-Jun-21 20:25N 18°20' W 064°48'4 3.9
2015-Jun-21 19:32N 18°23' W 064°45'6 2.6
2015-Jun-21 17:26N 18°20' W 064°50'  

Dump ship's entire track history